sensor_id;sensor_type;location;lat;lon;timestamp;P1;durP1;ratioP1;P2;durP2;ratioP2
53977;SDS011;39886;47.984;-1.586;2023-02-17T00:00:48;1.13;;;1.10;;
53977;SDS011;39886;47.984;-1.586;2023-02-17T00:03:14;1.50;;;1.40;;
53977;SDS011;39886;47.984;-1.586;2023-02-17T00:05:40;1.25;;;1.10;;
53977;SDS011;39886;47.984;-1.586;2023-02-17T00:08:06;1.63;;;1.20;;
53977;SDS011;39886;47.984;-1.586;2023-02-17T00:10:31;1.50;;;1.38;;
53977;SDS011;39886;47.984;-1.586;2023-02-17T00:12:57;1.48;;;1.38;;
53977;SDS011;39886;47.984;-1.586;2023-02-17T00:15:23;1.25;;;1.15;;
53977;SDS011;39886;47.984;-1.586;2023-02-17T00:17:49;1.40;;;1.30;;
53977;SDS011;39886;47.984;-1.586;2023-02-17T00:20:14;1.40;;;1.27;;
53977;SDS011;39886;47.984;-1.586;2023-02-17T00:22:40;1.30;;;1.20;;
53977;SDS011;39886;47.984;-1.586;2023-02-17T00:25:06;1.15;;;1.05;;
53977;SDS011;39886;47.984;-1.586;2023-02-17T00:27:32;1.02;;;1.02;;
53977;SDS011;39886;47.984;-1.586;2023-02-17T00:29:58;1.10;;;1.10;;
53977;SDS011;39886;47.984;-1.586;2023-02-17T00:32:24;1.73;;;1.20;;
53977;SDS011;39886;47.984;-1.586;2023-02-17T00:34:50;1.17;;;1.10;;
53977;SDS011;39886;47.984;-1.586;2023-02-17T00:37:17;1.08;;;0.98;;
53977;SDS011;39886;47.984;-1.586;2023-02-17T00:39:43;1.08;;;1.08;;
53977;SDS011;39886;47.984;-1.586;2023-02-17T00:42:08;1.02;;;1.02;;
53977;SDS011;39886;47.984;-1.586;2023-02-17T00:44:34;1.23;;;1.10;;
53977;SDS011;39886;47.984;-1.586;2023-02-17T00:47:00;1.10;;;1.00;;
53977;SDS011;39886;47.984;-1.586;2023-02-17T00:49:26;1.27;;;1.17;;
53977;SDS011;39886;47.984;-1.586;2023-02-17T00:51:51;1.08;;;0.98;;
53977;SDS011;39886;47.984;-1.586;2023-02-17T00:54:18;1.05;;;1.00;;
53977;SDS011;39886;47.984;-1.586;2023-02-17T00:56:44;1.23;;;1.13;;
53977;SDS011;39886;47.984;-1.586;2023-02-17T00:59:11;1.00;;;1.00;;
53977;SDS011;39886;47.984;-1.586;2023-02-17T01:01:37;1.30;;;1.20;;
53977;SDS011;39886;47.984;-1.586;2023-02-17T01:04:03;1.50;;;1.10;;
53977;SDS011;39886;47.984;-1.586;2023-02-17T01:06:30;1.50;;;0.80;;
53977;SDS011;39886;47.984;-1.586;2023-02-17T01:08:59;1.05;;;1.05;;
53977;SDS011;39886;47.984;-1.586;2023-02-17T01:11:26;1.05;;;0.93;;
53977;SDS011;39886;47.984;-1.586;2023-02-17T01:13:53;0.88;;;0.88;;
53977;SDS011;39886;47.984;-1.586;2023-02-17T01:16:24;1.20;;;1.10;;
53977;SDS011;39886;47.984;-1.586;2023-02-17T01:19:00;1.10;;;1.00;;
53977;SDS011;39886;47.984;-1.586;2023-02-17T01:21:29;2.35;;;1.20;;
53977;SDS011;39886;47.984;-1.586;2023-02-17T01:23:57;1.15;;;1.10;;
53977;SDS011;39886;47.984;-1.586;2023-02-17T01:26:25;1.30;;;1.20;;
53977;SDS011;39886;47.984;-1.586;2023-02-17T01:28:52;1.10;;;1.10;;
53977;SDS011;39886;47.984;-1.586;2023-02-17T01:31:19;1.33;;;1.30;;
53977;SDS011;39886;47.984;-1.586;2023-02-17T01:33:46;1.00;;;1.00;;
53977;SDS011;39886;47.984;-1.586;2023-02-17T01:36:12;0.90;;;0.90;;
53977;SDS011;39886;47.984;-1.586;2023-02-17T01:38:40;1.10;;;1.10;;
53977;SDS011;39886;47.984;-1.586;2023-02-17T01:41:07;1.10;;;1.10;;
53977;SDS011;39886;47.984;-1.586;2023-02-17T01:43:33;1.33;;;1.20;;
53977;SDS011;39886;47.984;-1.586;2023-02-17T01:46:03;1.08;;;1.08;;
53977;SDS011;39886;47.984;-1.586;2023-02-17T01:48:32;1.17;;;1.10;;
53977;SDS011;39886;47.984;-1.586;2023-02-17T01:51:20;0.93;;;0.93;;
53977;SDS011;39886;47.984;-1.586;2023-02-17T01:54:11;1.05;;;1.05;;
53977;SDS011;39886;47.984;-1.586;2023-02-17T01:56:40;1.05;;;1.05;;
53977;SDS011;39886;47.984;-1.586;2023-02-17T01:59:14;1.13;;;1.02;;
53977;SDS011;39886;47.984;-1.586;2023-02-17T02:01:43;0.98;;;0.98;;
53977;SDS011;39886;47.984;-1.586;2023-02-17T02:04:09;0.88;;;0.88;;
53977;SDS011;39886;47.984;-1.586;2023-02-17T02:06:37;1.10;;;1.02;;
53977;SDS011;39886;47.984;-1.586;2023-02-17T02:09:08;1.20;;;1.10;;
53977;SDS011;39886;47.984;-1.586;2023-02-17T02:11:39;1.17;;;1.10;;
53977;SDS011;39886;47.984;-1.586;2023-02-17T02:14:05;1.05;;;1.05;;
53977;SDS011;39886;47.984;-1.586;2023-02-17T02:36:52;1.20;;;1.10;;
53977;SDS011;39886;47.984;-1.586;2023-02-17T02:39:25;1.20;;;1.10;;
53977;SDS011;39886;47.984;-1.586;2023-02-17T02:42:07;1.60;;;1.10;;
53977;SDS011;39886;47.984;-1.586;2023-02-17T02:44:37;1.17;;;1.10;;
53977;SDS011;39886;47.984;-1.586;2023-02-17T02:47:33;1.17;;;1.08;;
53977;SDS011;39886;47.984;-1.586;2023-02-17T02:50:11;1.08;;;1.08;;
53977;SDS011;39886;47.984;-1.586;2023-02-17T02:55:33;1.33;;;1.02;;
53977;SDS011;39886;47.984;-1.586;2023-02-17T03:00:44;1.27;;;1.17;;
53977;SDS011;39886;47.984;-1.586;2023-02-17T03:06:14;1.00;;;1.00;;
53977;SDS011;39886;47.984;-1.586;2023-02-17T03:08:56;1.17;;;1.08;;
53977;SDS011;39886;47.984;-1.586;2023-02-17T03:11:29;0.93;;;0.93;;
53977;SDS011;39886;47.984;-1.586;2023-02-17T03:13:59;1.95;;;1.30;;
53977;SDS011;39886;47.984;-1.586;2023-02-17T03:16:33;0.90;;;0.90;;
53977;SDS011;39886;47.984;-1.586;2023-02-17T03:19:00;0.90;;;0.90;;
53977;SDS011;39886;47.984;-1.586;2023-02-17T03:21:28;1.15;;;1.08;;
53977;SDS011;39886;47.984;-1.586;2023-02-17T03:24:01;1.00;;;1.00;;
53977;SDS011;39886;47.984;-1.586;2023-02-17T03:26:28;1.27;;;1.17;;
53977;SDS011;39886;47.984;-1.586;2023-02-17T03:28:53;0.90;;;0.90;;
53977;SDS011;39886;47.984;-1.586;2023-02-17T03:31:19;0.88;;;0.88;;
53977;SDS011;39886;47.984;-1.586;2023-02-17T03:33:45;1.10;;;1.10;;
53977;SDS011;39886;47.984;-1.586;2023-02-17T03:36:11;1.00;;;1.00;;
53977;SDS011;39886;47.984;-1.586;2023-02-17T03:38:36;1.00;;;1.00;;
53977;SDS011;39886;47.984;-1.586;2023-02-17T03:41:02;1.10;;;1.00;;
53977;SDS011;39886;47.984;-1.586;2023-02-17T03:43:28;1.10;;;1.00;;
53977;SDS011;39886;47.984;-1.586;2023-02-17T03:45:54;1.10;;;1.00;;
53977;SDS011;39886;47.984;-1.586;2023-02-17T03:48:20;1.10;;;1.10;;
53977;SDS011;39886;47.984;-1.586;2023-02-17T03:50:45;1.08;;;1.08;;
53977;SDS011;39886;47.984;-1.586;2023-02-17T03:53:11;0.88;;;0.88;;
53977;SDS011;39886;47.984;-1.586;2023-02-17T03:55:37;1.20;;;1.10;;
53977;SDS011;39886;47.984;-1.586;2023-02-17T03:58:03;1.08;;;1.08;;
53977;SDS011;39886;47.984;-1.586;2023-02-17T04:00:28;0.88;;;0.88;;
53977;SDS011;39886;47.984;-1.586;2023-02-17T04:02:54;1.10;;;1.10;;
53977;SDS011;39886;47.984;-1.586;2023-02-17T04:05:21;1.27;;;1.17;;
53977;SDS011;39886;47.984;-1.586;2023-02-17T04:07:47;1.20;;;1.10;;
53977;SDS011;39886;47.984;-1.586;2023-02-17T04:10:13;1.00;;;1.00;;
53977;SDS011;39886;47.984;-1.586;2023-02-17T04:12:39;1.20;;;1.10;;
53977;SDS011;39886;47.984;-1.586;2023-02-17T04:15:05;0.95;;;0.95;;
53977;SDS011;39886;47.984;-1.586;2023-02-17T04:17:31;0.90;;;0.90;;
53977;SDS011;39886;47.984;-1.586;2023-02-17T04:19:57;1.00;;;1.00;;
53977;SDS011;39886;47.984;-1.586;2023-02-17T04:22:23;1.20;;;1.10;;
53977;SDS011;39886;47.984;-1.586;2023-02-17T04:24:48;1.00;;;1.00;;
53977;SDS011;39886;47.984;-1.586;2023-02-17T04:27:14;1.00;;;1.00;;
53977;SDS011;39886;47.984;-1.586;2023-02-17T04:29:40;1.00;;;1.00;;
53977;SDS011;39886;47.984;-1.586;2023-02-17T04:32:06;0.88;;;0.88;;
53977;SDS011;39886;47.984;-1.586;2023-02-17T04:34:31;1.00;;;1.00;;
53977;SDS011;39886;47.984;-1.586;2023-02-17T04:36:57;1.08;;;1.08;;
53977;SDS011;39886;47.984;-1.586;2023-02-17T04:39:23;0.90;;;0.90;;
53977;SDS011;39886;47.984;-1.586;2023-02-17T04:41:48;0.95;;;0.95;;
53977;SDS011;39886;47.984;-1.586;2023-02-17T04:44:14;1.10;;;1.00;;
53977;SDS011;39886;47.984;-1.586;2023-02-17T04:46:40;0.93;;;0.93;;
53977;SDS011;39886;47.984;-1.586;2023-02-17T04:49:06;1.15;;;1.02;;
53977;SDS011;39886;47.984;-1.586;2023-02-17T04:51:31;0.90;;;0.90;;
53977;SDS011;39886;47.984;-1.586;2023-02-17T04:53:57;1.27;;;1.17;;
53977;SDS011;39886;47.984;-1.586;2023-02-17T04:56:23;1.23;;;1.13;;
53977;SDS011;39886;47.984;-1.586;2023-02-17T04:58:48;1.00;;;1.00;;
53977;SDS011;39886;47.984;-1.586;2023-02-17T05:01:14;1.13;;;1.05;;
53977;SDS011;39886;47.984;-1.586;2023-02-17T05:03:40;1.30;;;1.20;;
53977;SDS011;39886;47.984;-1.586;2023-02-17T05:06:06;1.00;;;1.00;;
53977;SDS011;39886;47.984;-1.586;2023-02-17T05:08:31;1.02;;;1.00;;
53977;SDS011;39886;47.984;-1.586;2023-02-17T05:10:57;1.00;;;1.00;;
53977;SDS011;39886;47.984;-1.586;2023-02-17T05:13:23;0.90;;;0.90;;
53977;SDS011;39886;47.984;-1.586;2023-02-17T05:15:49;0.90;;;0.90;;
53977;SDS011;39886;47.984;-1.586;2023-02-17T05:18:14;1.20;;;1.10;;
53977;SDS011;39886;47.984;-1.586;2023-02-17T05:20:40;1.33;;;1.23;;
53977;SDS011;39886;47.984;-1.586;2023-02-17T05:23:06;1.05;;;1.05;;
53977;SDS011;39886;47.984;-1.586;2023-02-17T05:25:32;1.00;;;1.00;;
53977;SDS011;39886;47.984;-1.586;2023-02-17T05:27:58;1.33;;;1.23;;
53977;SDS011;39886;47.984;-1.586;2023-02-17T05:30:23;1.02;;;0.90;;
53977;SDS011;39886;47.984;-1.586;2023-02-17T05:32:49;0.93;;;0.90;;
53977;SDS011;39886;47.984;-1.586;2023-02-17T05:35:15;1.00;;;1.00;;
53977;SDS011;39886;47.984;-1.586;2023-02-17T05:37:41;1.02;;;0.90;;
53977;SDS011;39886;47.984;-1.586;2023-02-17T05:40:07;1.05;;;1.05;;
53977;SDS011;39886;47.984;-1.586;2023-02-17T05:42:33;0.90;;;0.90;;
53977;SDS011;39886;47.984;-1.586;2023-02-17T05:44:58;1.10;;;1.10;;
53977;SDS011;39886;47.984;-1.586;2023-02-17T05:47:24;1.00;;;1.00;;
53977;SDS011;39886;47.984;-1.586;2023-02-17T05:49:50;0.80;;;0.80;;
53977;SDS011;39886;47.984;-1.586;2023-02-17T05:52:16;1.38;;;1.10;;
53977;SDS011;39886;47.984;-1.586;2023-02-17T05:54:42;1.15;;;1.00;;
53977;SDS011;39886;47.984;-1.586;2023-02-17T05:57:08;1.00;;;1.00;;
53977;SDS011;39886;47.984;-1.586;2023-02-17T05:59:34;1.10;;;1.00;;
53977;SDS011;39886;47.984;-1.586;2023-02-17T06:01:59;1.20;;;1.10;;
53977;SDS011;39886;47.984;-1.586;2023-02-17T06:04:25;1.13;;;1.00;;
53977;SDS011;39886;47.984;-1.586;2023-02-17T06:06:51;0.98;;;0.82;;
53977;SDS011;39886;47.984;-1.586;2023-02-17T06:09:17;1.08;;;1.00;;
53977;SDS011;39886;47.984;-1.586;2023-02-17T06:11:42;1.08;;;1.08;;
53977;SDS011;39886;47.984;-1.586;2023-02-17T06:14:08;0.90;;;0.90;;
53977;SDS011;39886;47.984;-1.586;2023-02-17T06:16:34;0.90;;;0.90;;
53977;SDS011;39886;47.984;-1.586;2023-02-17T06:19:00;1.08;;;1.08;;
53977;SDS011;39886;47.984;-1.586;2023-02-17T06:21:26;1.30;;;1.20;;
53977;SDS011;39886;47.984;-1.586;2023-02-17T06:23:53;0.98;;;0.98;;
53977;SDS011;39886;47.984;-1.586;2023-02-17T06:26:18;0.90;;;0.90;;
53977;SDS011;39886;47.984;-1.586;2023-02-17T06:28:44;0.90;;;0.90;;
53977;SDS011;39886;47.984;-1.586;2023-02-17T06:31:10;0.95;;;0.95;;
53977;SDS011;39886;47.984;-1.586;2023-02-17T06:33:36;0.88;;;0.82;;
53977;SDS011;39886;47.984;-1.586;2023-02-17T06:36:01;0.90;;;0.90;;
53977;SDS011;39886;47.984;-1.586;2023-02-17T06:38:27;0.90;;;0.90;;
53977;SDS011;39886;47.984;-1.586;2023-02-17T06:40:53;0.82;;;0.82;;
53977;SDS011;39886;47.984;-1.586;2023-02-17T06:43:19;0.80;;;0.80;;
53977;SDS011;39886;47.984;-1.586;2023-02-17T06:45:45;0.73;;;0.73;;
53977;SDS011;39886;47.984;-1.586;2023-02-17T06:48:10;0.80;;;0.80;;
53977;SDS011;39886;47.984;-1.586;2023-02-17T06:50:36;0.80;;;0.80;;
53977;SDS011;39886;47.984;-1.586;2023-02-17T06:53:02;0.98;;;0.90;;
53977;SDS011;39886;47.984;-1.586;2023-02-17T06:55:28;1.00;;;0.98;;
53977;SDS011;39886;47.984;-1.586;2023-02-17T06:57:54;0.85;;;0.85;;
53977;SDS011;39886;47.984;-1.586;2023-02-17T07:00:20;0.85;;;0.85;;
53977;SDS011;39886;47.984;-1.586;2023-02-17T07:02:46;0.77;;;0.77;;
53977;SDS011;39886;47.984;-1.586;2023-02-17T07:05:12;0.88;;;0.88;;
53977;SDS011;39886;47.984;-1.586;2023-02-17T07:07:38;0.85;;;0.85;;
53977;SDS011;39886;47.984;-1.586;2023-02-17T07:10:04;0.80;;;0.80;;
53977;SDS011;39886;47.984;-1.586;2023-02-17T07:12:30;1.00;;;1.00;;
53977;SDS011;39886;47.984;-1.586;2023-02-17T07:14:56;0.82;;;0.82;;
53977;SDS011;39886;47.984;-1.586;2023-02-17T07:17:21;0.80;;;0.80;;
53977;SDS011;39886;47.984;-1.586;2023-02-17T07:19:47;0.75;;;0.75;;
53977;SDS011;39886;47.984;-1.586;2023-02-17T07:22:13;0.90;;;0.90;;
53977;SDS011;39886;47.984;-1.586;2023-02-17T07:24:39;1.00;;;1.00;;
53977;SDS011;39886;47.984;-1.586;2023-02-17T07:27:05;1.10;;;1.05;;
53977;SDS011;39886;47.984;-1.586;2023-02-17T07:29:32;0.90;;;0.90;;
53977;SDS011;39886;47.984;-1.586;2023-02-17T07:31:58;1.02;;;0.80;;
53977;SDS011;39886;47.984;-1.586;2023-02-17T07:34:24;0.85;;;0.85;;
53977;SDS011;39886;47.984;-1.586;2023-02-17T07:36:51;1.00;;;1.00;;
53977;SDS011;39886;47.984;-1.586;2023-02-17T07:39:16;1.15;;;1.05;;
53977;SDS011;39886;47.984;-1.586;2023-02-17T07:41:42;1.08;;;1.00;;
53977;SDS011;39886;47.984;-1.586;2023-02-17T07:44:08;0.80;;;0.80;;
53977;SDS011;39886;47.984;-1.586;2023-02-17T07:46:34;1.00;;;0.82;;
53977;SDS011;39886;47.984;-1.586;2023-02-17T07:49:00;1.20;;;0.98;;
53977;SDS011;39886;47.984;-1.586;2023-02-17T07:51:26;0.77;;;0.77;;
53977;SDS011;39886;47.984;-1.586;2023-02-17T07:53:52;0.90;;;0.90;;
53977;SDS011;39886;47.984;-1.586;2023-02-17T07:56:19;0.80;;;0.80;;
53977;SDS011;39886;47.984;-1.586;2023-02-17T07:58:48;1.42;;;0.90;;
53977;SDS011;39886;47.984;-1.586;2023-02-17T08:01:18;0.90;;;0.90;;
53977;SDS011;39886;47.984;-1.586;2023-02-17T08:03:46;1.00;;;1.00;;
53977;SDS011;39886;47.984;-1.586;2023-02-17T08:06:18;2.05;;;1.00;;
53977;SDS011;39886;47.984;-1.586;2023-02-17T08:08:47;1.02;;;0.90;;
53977;SDS011;39886;47.984;-1.586;2023-02-17T08:11:32;0.90;;;0.90;;
53977;SDS011;39886;47.984;-1.586;2023-02-17T08:14:16;1.00;;;1.00;;
53977;SDS011;39886;47.984;-1.586;2023-02-17T08:16:44;0.98;;;0.80;;
53977;SDS011;39886;47.984;-1.586;2023-02-17T08:19:10;0.80;;;0.80;;
53977;SDS011;39886;47.984;-1.586;2023-02-17T08:21:35;0.80;;;0.80;;
53977;SDS011;39886;47.984;-1.586;2023-02-17T08:24:01;1.23;;;0.80;;
53977;SDS011;39886;47.984;-1.586;2023-02-17T08:26:27;0.93;;;0.93;;
53977;SDS011;39886;47.984;-1.586;2023-02-17T08:28:54;0.80;;;0.80;;
53977;SDS011;39886;47.984;-1.586;2023-02-17T08:31:21;1.15;;;1.00;;
53977;SDS011;39886;47.984;-1.586;2023-02-17T08:33:49;0.80;;;0.80;;
53977;SDS011;39886;47.984;-1.586;2023-02-17T08:36:15;1.10;;;0.90;;
53977;SDS011;39886;47.984;-1.586;2023-02-17T08:38:41;1.05;;;0.90;;
53977;SDS011;39886;47.984;-1.586;2023-02-17T08:41:13;1.50;;;1.40;;
53977;SDS011;39886;47.984;-1.586;2023-02-17T08:43:40;1.02;;;0.93;;
53977;SDS011;39886;47.984;-1.586;2023-02-17T08:46:07;1.48;;;0.82;;
53977;SDS011;39886;47.984;-1.586;2023-02-17T08:48:33;1.20;;;0.63;;
53977;SDS011;39886;47.984;-1.586;2023-02-17T08:50:59;1.98;;;0.93;;
53977;SDS011;39886;47.984;-1.586;2023-02-17T08:53:25;0.90;;;0.90;;
53977;SDS011;39886;47.984;-1.586;2023-02-17T08:55:51;1.02;;;0.90;;
53977;SDS011;39886;47.984;-1.586;2023-02-17T08:58:17;2.00;;;0.70;;
53977;SDS011;39886;47.984;-1.586;2023-02-17T09:00:42;1.52;;;0.90;;
53977;SDS011;39886;47.984;-1.586;2023-02-17T09:03:08;1.80;;;1.10;;
53977;SDS011;39886;47.984;-1.586;2023-02-17T09:05:34;1.75;;;0.93;;
53977;SDS011;39886;47.984;-1.586;2023-02-17T09:08:00;0.90;;;0.90;;
53977;SDS011;39886;47.984;-1.586;2023-02-17T09:10:26;0.80;;;0.80;;
53977;SDS011;39886;47.984;-1.586;2023-02-17T09:12:52;1.77;;;0.95;;
53977;SDS011;39886;47.984;-1.586;2023-02-17T09:15:18;2.28;;;0.95;;
53977;SDS011;39886;47.984;-1.586;2023-02-17T09:17:44;1.02;;;0.98;;
53977;SDS011;39886;47.984;-1.586;2023-02-17T09:20:10;0.90;;;0.90;;
53977;SDS011;39886;47.984;-1.586;2023-02-17T09:22:36;1.70;;;1.00;;
53977;SDS011;39886;47.984;-1.586;2023-02-17T09:25:02;2.78;;;1.20;;
53977;SDS011;39886;47.984;-1.586;2023-02-17T09:27:28;1.17;;;0.85;;
53977;SDS011;39886;47.984;-1.586;2023-02-17T09:29:54;2.25;;;1.00;;
53977;SDS011;39886;47.984;-1.586;2023-02-17T09:32:20;1.77;;;1.00;;
53977;SDS011;39886;47.984;-1.586;2023-02-17T09:34:46;1.63;;;1.00;;
53977;SDS011;39886;47.984;-1.586;2023-02-17T09:37:15;1.10;;;0.95;;
53977;SDS011;39886;47.984;-1.586;2023-02-17T09:39:44;1.77;;;1.02;;
53977;SDS011;39886;47.984;-1.586;2023-02-17T09:42:18;1.15;;;0.90;;
53977;SDS011;39886;47.984;-1.586;2023-02-17T09:44:47;1.48;;;1.10;;
53977;SDS011;39886;47.984;-1.586;2023-02-17T09:47:31;1.38;;;1.20;;
53977;SDS011;39886;47.984;-1.586;2023-02-17T09:50:06;1.70;;;1.00;;
53977;SDS011;39886;47.984;-1.586;2023-02-17T09:55:28;1.98;;;1.00;;
53977;SDS011;39886;47.984;-1.586;2023-02-17T10:00:43;3.20;;;1.30;;
53977;SDS011;39886;47.984;-1.586;2023-02-17T10:03:33;2.45;;;0.98;;
53977;SDS011;39886;47.984;-1.586;2023-02-17T10:06:11;1.63;;;1.02;;
53977;SDS011;39886;47.984;-1.586;2023-02-17T10:08:41;0.77;;;0.77;;
53977;SDS011;39886;47.984;-1.586;2023-02-17T10:13:51;1.70;;;1.00;;
53977;SDS011;39886;47.984;-1.586;2023-02-17T10:16:22;1.38;;;0.98;;
53977;SDS011;39886;47.984;-1.586;2023-02-17T10:18:59;1.02;;;1.00;;
53977;SDS011;39886;47.984;-1.586;2023-02-17T10:21:36;1.85;;;1.08;;
53977;SDS011;39886;47.984;-1.586;2023-02-17T10:24:10;1.92;;;1.08;;
53977;SDS011;39886;47.984;-1.586;2023-02-17T10:26:45;1.27;;;1.08;;
53977;SDS011;39886;47.984;-1.586;2023-02-17T10:29:29;1.17;;;1.08;;
53977;SDS011;39886;47.984;-1.586;2023-02-17T10:37:38;2.15;;;1.20;;
53977;SDS011;39886;47.984;-1.586;2023-02-17T10:40:20;2.90;;;1.50;;
53977;SDS011;39886;47.984;-1.586;2023-02-17T10:42:49;1.63;;;1.27;;
53977;SDS011;39886;47.984;-1.586;2023-02-17T10:45:28;3.28;;;1.77;;
53977;SDS011;39886;47.984;-1.586;2023-02-17T10:49:00;4.10;;;1.58;;
53977;SDS011;39886;47.984;-1.586;2023-02-17T10:51:10;1.60;;;1.30;;
53977;SDS011;39886;47.984;-1.586;2023-02-17T10:53:39;2.30;;;1.38;;
53977;SDS011;39886;47.984;-1.586;2023-02-17T11:01:10;2.70;;;1.40;;
53977;SDS011;39886;47.984;-1.586;2023-02-17T11:03:38;2.72;;;1.17;;
53977;SDS011;39886;47.984;-1.586;2023-02-17T11:06:19;2.42;;;1.27;;
53977;SDS011;39886;47.984;-1.586;2023-02-17T11:11:14;2.92;;;1.30;;
53977;SDS011;39886;47.984;-1.586;2023-02-17T11:16:32;4.03;;;1.40;;
53977;SDS011;39886;47.984;-1.586;2023-02-17T11:19:02;2.15;;;1.45;;
53977;SDS011;39886;47.984;-1.586;2023-02-17T11:21:30;1.50;;;1.20;;
53977;SDS011;39886;47.984;-1.586;2023-02-17T11:26:28;1.50;;;1.10;;
53977;SDS011;39886;47.984;-1.586;2023-02-17T11:31:57;2.70;;;1.27;;
53977;SDS011;39886;47.984;-1.586;2023-02-17T11:34:26;3.95;;;1.50;;
53977;SDS011;39886;47.984;-1.586;2023-02-17T11:39:38;1.23;;;0.93;;
53977;SDS011;39886;47.984;-1.586;2023-02-17T11:42:23;1.30;;;1.10;;
53977;SDS011;39886;47.984;-1.586;2023-02-17T11:44:50;2.95;;;1.30;;
53977;SDS011;39886;47.984;-1.586;2023-02-17T11:47:22;2.60;;;1.27;;
53977;SDS011;39886;47.984;-1.586;2023-02-17T11:50:12;3.00;;;1.50;;
53977;SDS011;39886;47.984;-1.586;2023-02-17T12:12:50;1.55;;;1.20;;
53977;SDS011;39886;47.984;-1.586;2023-02-17T12:17:50;2.03;;;1.20;;
53977;SDS011;39886;47.984;-1.586;2023-02-17T12:32:02;1.38;;;1.10;;
53977;SDS011;39886;47.984;-1.586;2023-02-17T12:34:39;2.83;;;1.23;;
53977;SDS011;39886;47.984;-1.586;2023-02-17T12:37:20;1.20;;;1.10;;
53977;SDS011;39886;47.984;-1.586;2023-02-17T12:42:37;2.15;;;1.10;;
53977;SDS011;39886;47.984;-1.586;2023-02-17T12:45:17;1.65;;;1.55;;
53977;SDS011;39886;47.984;-1.586;2023-02-17T12:47:49;2.25;;;1.17;;
53977;SDS011;39886;47.984;-1.586;2023-02-17T12:50:31;1.67;;;1.33;;
53977;SDS011;39886;47.984;-1.586;2023-02-17T12:53:04;3.47;;;1.30;;
53977;SDS011;39886;47.984;-1.586;2023-02-17T12:55:39;2.58;;;1.40;;
53977;SDS011;39886;47.984;-1.586;2023-02-17T12:58:18;1.95;;;1.17;;
53977;SDS011;39886;47.984;-1.586;2023-02-17T13:00:58;1.00;;;1.00;;
53977;SDS011;39886;47.984;-1.586;2023-02-17T13:03:30;1.48;;;1.20;;
53977;SDS011;39886;47.984;-1.586;2023-02-17T13:11:01;2.22;;;1.48;;
53977;SDS011;39886;47.984;-1.586;2023-02-17T13:13:32;1.92;;;1.08;;
53977;SDS011;39886;47.984;-1.586;2023-02-17T13:18:33;1.90;;;1.23;;
53977;SDS011;39886;47.984;-1.586;2023-02-17T13:24:05;1.30;;;1.20;;
53977;SDS011;39886;47.984;-1.586;2023-02-17T13:26:37;1.35;;;1.23;;
53977;SDS011;39886;47.984;-1.586;2023-02-17T13:29:17;2.80;;;1.40;;
53977;SDS011;39886;47.984;-1.586;2023-02-17T13:31:56;1.55;;;1.30;;
53977;SDS011;39886;47.984;-1.586;2023-02-17T13:34:30;1.52;;;1.20;;
53977;SDS011;39886;47.984;-1.586;2023-02-17T13:37:18;2.50;;;1.20;;
53977;SDS011;39886;47.984;-1.586;2023-02-17T13:39:52;1.90;;;1.20;;
53977;SDS011;39886;47.984;-1.586;2023-02-17T13:42:51;1.30;;;1.20;;
53977;SDS011;39886;47.984;-1.586;2023-02-17T13:45:24;2.35;;;1.45;;
53977;SDS011;39886;47.984;-1.586;2023-02-17T13:53:22;1.63;;;1.30;;
53977;SDS011;39886;47.984;-1.586;2023-02-17T13:56:07;2.17;;;1.35;;
53977;SDS011;39886;47.984;-1.586;2023-02-17T13:58:47;2.55;;;1.23;;
53977;SDS011;39886;47.984;-1.586;2023-02-17T14:01:14;1.98;;;1.17;;
53977;SDS011;39886;47.984;-1.586;2023-02-17T14:03:52;1.60;;;1.33;;
53977;SDS011;39886;47.984;-1.586;2023-02-17T14:08:54;1.35;;;1.17;;
53977;SDS011;39886;47.984;-1.586;2023-02-17T14:11:22;1.58;;;1.48;;
53977;SDS011;39886;47.984;-1.586;2023-02-17T14:13:51;2.13;;;1.10;;
53977;SDS011;39886;47.984;-1.586;2023-02-17T14:21:28;3.35;;;1.15;;
53977;SDS011;39886;47.984;-1.586;2023-02-17T14:23:54;2.30;;;1.10;;
53977;SDS011;39886;47.984;-1.586;2023-02-17T14:26:33;2.17;;;1.48;;
53977;SDS011;39886;47.984;-1.586;2023-02-17T14:29:06;2.17;;;1.10;;
53977;SDS011;39886;47.984;-1.586;2023-02-17T14:31:38;1.23;;;1.13;;
53977;SDS011;39886;47.984;-1.586;2023-02-17T14:34:24;1.85;;;1.20;;
53977;SDS011;39886;47.984;-1.586;2023-02-17T14:36:52;3.15;;;1.30;;
53977;SDS011;39886;47.984;-1.586;2023-02-17T14:39:18;1.77;;;1.10;;
53977;SDS011;39886;47.984;-1.586;2023-02-17T14:41:43;1.92;;;1.30;;
53977;SDS011;39886;47.984;-1.586;2023-02-17T14:44:09;1.58;;;1.30;;
53977;SDS011;39886;47.984;-1.586;2023-02-17T14:46:35;2.42;;;1.10;;
53977;SDS011;39886;47.984;-1.586;2023-02-17T14:49:02;2.40;;;1.17;;
53977;SDS011;39886;47.984;-1.586;2023-02-17T14:51:32;2.38;;;1.20;;
53977;SDS011;39886;47.984;-1.586;2023-02-17T14:54:09;2.28;;;1.17;;
53977;SDS011;39886;47.984;-1.586;2023-02-17T14:56:39;1.70;;;1.23;;
53977;SDS011;39886;47.984;-1.586;2023-02-17T14:59:09;1.50;;;1.40;;
53977;SDS011;39886;47.984;-1.586;2023-02-17T15:01:35;1.38;;;1.10;;
53977;SDS011;39886;47.984;-1.586;2023-02-17T15:04:00;1.63;;;1.50;;
53977;SDS011;39886;47.984;-1.586;2023-02-17T15:06:35;2.38;;;1.23;;
53977;SDS011;39886;47.984;-1.586;2023-02-17T15:09:13;2.30;;;1.33;;
53977;SDS011;39886;47.984;-1.586;2023-02-17T15:11:41;1.48;;;1.25;;
53977;SDS011;39886;47.984;-1.586;2023-02-17T15:14:17;1.95;;;1.15;;
53977;SDS011;39886;47.984;-1.586;2023-02-17T15:16:45;2.65;;;1.30;;
53977;SDS011;39886;47.984;-1.586;2023-02-17T15:19:12;2.15;;;1.30;;
53977;SDS011;39886;47.984;-1.586;2023-02-17T15:21:39;2.35;;;1.30;;
53977;SDS011;39886;47.984;-1.586;2023-02-17T15:24:17;1.75;;;1.25;;
53977;SDS011;39886;47.984;-1.586;2023-02-17T15:26:46;2.80;;;1.50;;
53977;SDS011;39886;47.984;-1.586;2023-02-17T15:29:16;2.20;;;1.25;;
53977;SDS011;39886;47.984;-1.586;2023-02-17T15:31:46;2.28;;;1.50;;
53977;SDS011;39886;47.984;-1.586;2023-02-17T15:34:17;1.52;;;1.27;;
53977;SDS011;39886;47.984;-1.586;2023-02-17T15:36:44;1.23;;;1.13;;
53977;SDS011;39886;47.984;-1.586;2023-02-17T15:39:11;3.20;;;1.50;;
53977;SDS011;39886;47.984;-1.586;2023-02-17T15:41:39;1.98;;;1.30;;
53977;SDS011;39886;47.984;-1.586;2023-02-17T15:44:08;2.17;;;1.50;;
53977;SDS011;39886;47.984;-1.586;2023-02-17T15:46:39;2.17;;;1.20;;
53977;SDS011;39886;47.984;-1.586;2023-02-17T15:49:05;1.35;;;1.20;;
53977;SDS011;39886;47.984;-1.586;2023-02-17T15:51:34;2.25;;;1.50;;
53977;SDS011;39886;47.984;-1.586;2023-02-17T15:53:59;2.05;;;1.30;;
53977;SDS011;39886;47.984;-1.586;2023-02-17T15:56:26;1.40;;;1.30;;
53977;SDS011;39886;47.984;-1.586;2023-02-17T15:58:57;1.77;;;1.30;;
53977;SDS011;39886;47.984;-1.586;2023-02-17T16:01:28;3.53;;;1.10;;
53977;SDS011;39886;47.984;-1.586;2023-02-17T16:03:56;2.55;;;1.20;;
53977;SDS011;39886;47.984;-1.586;2023-02-17T16:06:26;2.05;;;1.35;;
53977;SDS011;39886;47.984;-1.586;2023-02-17T16:08:53;3.38;;;1.73;;
53977;SDS011;39886;47.984;-1.586;2023-02-17T16:11:19;2.00;;;1.30;;
53977;SDS011;39886;47.984;-1.586;2023-02-17T16:13:46;2.80;;;1.20;;
53977;SDS011;39886;47.984;-1.586;2023-02-17T16:16:20;1.25;;;1.02;;
53977;SDS011;39886;47.984;-1.586;2023-02-17T16:18:52;1.38;;;1.15;;
53977;SDS011;39886;47.984;-1.586;2023-02-17T16:21:18;2.08;;;1.30;;
53977;SDS011;39886;47.984;-1.586;2023-02-17T16:23:44;1.55;;;1.17;;
53977;SDS011;39886;47.984;-1.586;2023-02-17T16:28:56;7.60;;;1.35;;
53977;SDS011;39886;47.984;-1.586;2023-02-17T16:31:22;6.15;;;1.33;;
53977;SDS011;39886;47.984;-1.586;2023-02-17T16:33:48;1.67;;;1.30;;
53977;SDS011;39886;47.984;-1.586;2023-02-17T16:36:15;1.88;;;1.30;;
53977;SDS011;39886;47.984;-1.586;2023-02-17T16:38:43;3.65;;;1.40;;
53977;SDS011;39886;47.984;-1.586;2023-02-17T16:41:15;1.60;;;1.23;;
53977;SDS011;39886;47.984;-1.586;2023-02-17T16:43:42;2.58;;;1.40;;
53977;SDS011;39886;47.984;-1.586;2023-02-17T16:48:56;2.60;;;1.20;;
53977;SDS011;39886;47.984;-1.586;2023-02-17T16:51:23;2.50;;;1.50;;